sensor_id;sensor_type;location;lat;lon;timestamp;pressure;altitude;pressure_sealevel;temperature;humidity
6194;BME280;3130;41.564;23.280;2023-06-14T00:02:18;98432.59;;;19.58;98.56
6194;BME280;3130;41.564;23.280;2023-06-14T00:04:46;98426.25;;;19.61;98.34
6194;BME280;3130;41.564;23.280;2023-06-14T00:07:13;98423.84;;;19.59;98.54
6194;BME280;3130;41.564;23.280;2023-06-14T00:09:42;98419.59;;;19.58;98.67
6194;BME280;3130;41.564;23.280;2023-06-14T00:12:09;98419.28;;;19.61;99.09
6194;BME280;3130;41.564;23.280;2023-06-14T00:14:36;98405.44;;;19.53;99.15
6194;BME280;3130;41.564;23.280;2023-06-14T00:17:04;98385.44;;;19.45;99.47
6194;BME280;3130;41.564;23.280;2023-06-14T00:19:32;98406.59;;;19.58;99.96
6194;BME280;3130;41.564;23.280;2023-06-14T00:22:04;98404.03;;;19.66;100.00
6194;BME280;3130;41.564;23.280;2023-06-14T00:24:48;98400.75;;;19.72;100.00
6194;BME280;3130;41.564;23.280;2023-06-14T00:27:15;98360.69;;;19.33;100.00
6194;BME280;3130;41.564;23.280;2023-06-14T00:29:43;98333.53;;;19.28;100.00
6194;BME280;3130;41.564;23.280;2023-06-14T00:32:10;98399.75;;;19.57;100.00
6194;BME280;3130;41.564;23.280;2023-06-14T00:34:37;98328.88;;;19.31;100.00
6194;BME280;3130;41.564;23.280;2023-06-14T00:37:06;98335.66;;;19.25;99.36
6194;BME280;3130;41.564;23.280;2023-06-14T00:39:33;98389.84;;;19.61;99.99
6194;BME280;3130;41.564;23.280;2023-06-14T00:42:00;98382.72;;;19.71;99.67
6194;BME280;3130;41.564;23.280;2023-06-14T00:44:27;98335.88;;;19.55;99.27
6194;BME280;3130;41.564;23.280;2023-06-14T00:46:54;98391.97;;;19.89;99.49
6194;BME280;3130;41.564;23.280;2023-06-14T00:49:21;98386.31;;;20.02;99.26
6194;BME280;3130;41.564;23.280;2023-06-14T00:51:48;98384.06;;;20.07;98.74
6194;BME280;3130;41.564;23.280;2023-06-14T00:54:17;98374.28;;;20.09;98.68
6194;BME280;3130;41.564;23.280;2023-06-14T00:56:44;98336.69;;;19.55;97.42
6194;BME280;3130;41.564;23.280;2023-06-14T00:59:11;98324.78;;;19.45;97.47
6194;BME280;3130;41.564;23.280;2023-06-14T01:01:39;98313.25;;;19.31;97.66
6194;BME280;3130;41.564;23.280;2023-06-14T01:04:06;98331.31;;;19.49;97.50
6194;BME280;3130;41.564;23.280;2023-06-14T01:06:40;98301.38;;;19.21;98.21
6194;BME280;3130;41.564;23.280;2023-06-14T01:09:22;98291.91;;;19.04;99.11
6194;BME280;3130;41.564;23.280;2023-06-14T01:11:58;98368.34;;;19.35;99.93
6194;BME280;3130;41.564;23.280;2023-06-14T01:14:27;98375.16;;;19.28;100.00
6194;BME280;3130;41.564;23.280;2023-06-14T01:16:56;98367.66;;;19.17;100.00
6194;BME280;3130;41.564;23.280;2023-06-14T01:19:26;98367.53;;;18.93;100.00
6194;BME280;3130;41.564;23.280;2023-06-14T01:21:53;98312.66;;;18.55;100.00
6194;BME280;3130;41.564;23.280;2023-06-14T01:24:22;98371.09;;;18.84;100.00
6194;BME280;3130;41.564;23.280;2023-06-14T01:26:52;98277.16;;;18.30;100.00
6194;BME280;3130;41.564;23.280;2023-06-14T01:29:22;98375.63;;;18.90;100.00
6194;BME280;3130;41.564;23.280;2023-06-14T01:31:51;98273.09;;;18.27;100.00
6194;BME280;3130;41.564;23.280;2023-06-14T01:34:20;98293.47;;;18.22;100.00
6194;BME280;3130;41.564;23.280;2023-06-14T01:36:47;98386.59;;;18.68;100.00
6194;BME280;3130;41.564;23.280;2023-06-14T01:39:15;98393.34;;;18.53;100.00
6194;BME280;3130;41.564;23.280;2023-06-14T01:41:47;98308.94;;;17.99;100.00
6194;BME280;3130;41.564;23.280;2023-06-14T01:44:16;98402.84;;;18.45;100.00
6194;BME280;3130;41.564;23.280;2023-06-14T01:46:45;98295.19;;;17.81;100.00
6194;BME280;3130;41.564;23.280;2023-06-14T01:49:12;98409.91;;;18.60;100.00
6194;BME280;3130;41.564;23.280;2023-06-14T01:51:39;98404.38;;;18.55;100.00
6194;BME280;3130;41.564;23.280;2023-06-14T01:54:06;98409.66;;;18.46;100.00
6194;BME280;3130;41.564;23.280;2023-06-14T01:56:33;98408.84;;;18.45;100.00
6194;BME280;3130;41.564;23.280;2023-06-14T01:59:02;98418.69;;;18.34;100.00
6194;BME280;3130;41.564;23.280;2023-06-14T02:01:29;98418.97;;;18.31;100.00
6194;BME280;3130;41.564;23.280;2023-06-14T02:03:56;98392.22;;;18.13;100.00
6194;BME280;3130;41.564;23.280;2023-06-14T02:06:26;98404.44;;;18.20;100.00
6194;BME280;3130;41.564;23.280;2023-06-14T02:08:53;98314.22;;;17.72;100.00
6194;BME280;3130;41.564;23.280;2023-06-14T02:11:20;98414.63;;;18.31;100.00
6194;BME280;3130;41.564;23.280;2023-06-14T02:13:47;98370.31;;;17.90;100.00
6194;BME280;3130;41.564;23.280;2023-06-14T02:16:16;98419.13;;;18.12;100.00
6194;BME280;3130;41.564;23.280;2023-06-14T02:18:43;98419.28;;;18.11;100.00
6194;BME280;3130;41.564;23.280;2023-06-14T02:21:10;98425.34;;;18.19;100.00
6194;BME280;3130;41.564;23.280;2023-06-14T02:23:38;98426.44;;;18.26;100.00
6194;BME280;3130;41.564;23.280;2023-06-14T02:26:05;98421.13;;;18.18;100.00
6194;BME280;3130;41.564;23.280;2023-06-14T02:28:32;98410.84;;;18.09;100.00
6194;BME280;3130;41.564;23.280;2023-06-14T02:31:01;98411.13;;;18.06;100.00
6194;BME280;3130;41.564;23.280;2023-06-14T02:33:29;98362.16;;;17.85;100.00
6194;BME280;3130;41.564;23.280;2023-06-14T02:35:56;98433.59;;;18.32;100.00
6194;BME280;3130;41.564;23.280;2023-06-14T02:38:23;98423.25;;;18.22;100.00
6194;BME280;3130;41.564;23.280;2023-06-14T02:40:51;98435.00;;;18.26;100.00
6194;BME280;3130;41.564;23.280;2023-06-14T02:43:18;98440.88;;;18.28;100.00
6194;BME280;3130;41.564;23.280;2023-06-14T02:45:45;98442.34;;;18.14;100.00
6194;BME280;3130;41.564;23.280;2023-06-14T02:48:12;98440.72;;;18.13;100.00
6194;BME280;3130;41.564;23.280;2023-06-14T02:50:41;98444.13;;;18.13;100.00
6194;BME280;3130;41.564;23.280;2023-06-14T02:53:08;98446.91;;;18.19;100.00
6194;BME280;3130;41.564;23.280;2023-06-14T02:55:36;98432.72;;;18.06;100.00
6194;BME280;3130;41.564;23.280;2023-06-14T02:58:05;98460.38;;;18.32;100.00
6194;BME280;3130;41.564;23.280;2023-06-14T03:00:32;98466.38;;;18.33;100.00
6194;BME280;3130;41.564;23.280;2023-06-14T03:03:00;98467.72;;;18.37;100.00
6194;BME280;3130;41.564;23.280;2023-06-14T03:05:27;98470.50;;;18.43;100.00
6194;BME280;3130;41.564;23.280;2023-06-14T03:07:56;98462.59;;;18.27;100.00
6194;BME280;3130;41.564;23.280;2023-06-14T03:10:23;98400.06;;;18.04;100.00
6194;BME280;3130;41.564;23.280;2023-06-14T03:12:51;98471.78;;;18.39;100.00
6194;BME280;3130;41.564;23.280;2023-06-14T03:15:18;98367.59;;;17.74;100.00
6194;BME280;3130;41.564;23.280;2023-06-14T03:17:46;98441.44;;;18.22;100.00
6194;BME280;3130;41.564;23.280;2023-06-14T03:20:14;98387.16;;;17.86;100.00
6194;BME280;3130;41.564;23.280;2023-06-14T03:22:43;98361.66;;;17.64;100.00
6194;BME280;3130;41.564;23.280;2023-06-14T03:25:13;98476.28;;;18.37;100.00
6194;BME280;3130;41.564;23.280;2023-06-14T03:27:40;98340.59;;;17.50;100.00
6194;BME280;3130;41.564;23.280;2023-06-14T03:30:08;98475.50;;;18.37;100.00
6194;BME280;3130;41.564;23.280;2023-06-14T03:32:36;98401.00;;;17.95;100.00
6194;BME280;3130;41.564;23.280;2023-06-14T03:35:04;98440.94;;;18.19;100.00
6194;BME280;3130;41.564;23.280;2023-06-14T03:37:32;98474.81;;;18.35;100.00
6194;BME280;3130;41.564;23.280;2023-06-14T03:40:00;98454.41;;;18.22;100.00
6194;BME280;3130;41.564;23.280;2023-06-14T03:42:30;98397.81;;;17.83;100.00
6194;BME280;3130;41.564;23.280;2023-06-14T03:44:57;98481.66;;;18.36;100.00
6194;BME280;3130;41.564;23.280;2023-06-14T03:47:25;98487.31;;;18.31;100.00
6194;BME280;3130;41.564;23.280;2023-06-14T03:49:52;98485.84;;;18.19;100.00
6194;BME280;3130;41.564;23.280;2023-06-14T03:52:19;98481.94;;;18.16;100.00
6194;BME280;3130;41.564;23.280;2023-06-14T03:54:47;98487.34;;;18.05;100.00
6194;BME280;3130;41.564;23.280;2023-06-14T03:57:15;98384.41;;;17.35;100.00
6194;BME280;3130;41.564;23.280;2023-06-14T03:59:43;98485.13;;;18.10;100.00
6194;BME280;3130;41.564;23.280;2023-06-14T04:02:11;98429.75;;;17.84;100.00
6194;BME280;3130;41.564;23.280;2023-06-14T04:04:41;98417.44;;;17.86;100.00
6194;BME280;3130;41.564;23.280;2023-06-14T04:07:09;98411.91;;;17.81;100.00
6194;BME280;3130;41.564;23.280;2023-06-14T04:09:37;98472.38;;;18.16;100.00
6194;BME280;3130;41.564;23.280;2023-06-14T04:12:05;98475.13;;;18.15;100.00
6194;BME280;3130;41.564;23.280;2023-06-14T04:14:34;98406.72;;;17.81;100.00
6194;BME280;3130;41.564;23.280;2023-06-14T04:17:03;98395.00;;;17.77;100.00
6194;BME280;3130;41.564;23.280;2023-06-14T04:19:30;98333.06;;;17.39;100.00
6194;BME280;3130;41.564;23.280;2023-06-14T04:21:58;98367.44;;;17.58;100.00
6194;BME280;3130;41.564;23.280;2023-06-14T04:24:27;98330.47;;;17.39;100.00
6194;BME280;3130;41.564;23.280;2023-06-14T04:26:58;98405.75;;;17.82;100.00
6194;BME280;3130;41.564;23.280;2023-06-14T04:29:26;98481.75;;;18.26;100.00
6194;BME280;3130;41.564;23.280;2023-06-14T04:31:55;98451.47;;;18.18;100.00
6194;BME280;3130;41.564;23.280;2023-06-14T04:34:27;98415.06;;;18.10;100.00
6194;BME280;3130;41.564;23.280;2023-06-14T04:36:59;98433.34;;;18.43;100.00
6194;BME280;3130;41.564;23.280;2023-06-14T04:39:27;98495.03;;;18.92;100.00
6194;BME280;3130;41.564;23.280;2023-06-14T04:41:54;98495.91;;;19.08;100.00
6194;BME280;3130;41.564;23.280;2023-06-14T04:44:23;98470.50;;;18.94;100.00
6194;BME280;3130;41.564;23.280;2023-06-14T04:46:56;98452.50;;;18.93;100.00
6194;BME280;3130;41.564;23.280;2023-06-14T04:49:24;98485.31;;;19.27;100.00
6194;BME280;3130;41.564;23.280;2023-06-14T04:51:56;98495.97;;;19.41;99.70
6194;BME280;3130;41.564;23.280;2023-06-14T04:54:25;98417.94;;;19.00;99.67
6194;BME280;3130;41.564;23.280;2023-06-14T04:56:52;98457.03;;;19.24;99.27
6194;BME280;3130;41.564;23.280;2023-06-14T04:59:20;98503.69;;;19.67;99.17
6194;BME280;3130;41.564;23.280;2023-06-14T05:01:48;98512.50;;;19.82;98.11
6194;BME280;3130;41.564;23.280;2023-06-14T05:04:15;98495.25;;;19.73;97.59
6194;BME280;3130;41.564;23.280;2023-06-14T05:06:42;98489.56;;;19.77;97.11
6194;BME280;3130;41.564;23.280;2023-06-14T05:09:13;98421.03;;;19.37;97.20
6194;BME280;3130;41.564;23.280;2023-06-14T05:11:40;98440.41;;;19.58;97.03
6194;BME280;3130;41.564;23.280;2023-06-14T05:14:10;98463.38;;;19.79;96.95
6194;BME280;3130;41.564;23.280;2023-06-14T05:16:38;98513.91;;;20.10;97.25
6194;BME280;3130;41.564;23.280;2023-06-14T05:19:06;98525.31;;;20.25;96.92
6194;BME280;3130;41.564;23.280;2023-06-14T05:21:33;98516.84;;;20.38;96.58
6194;BME280;3130;41.564;23.280;2023-06-14T05:24:00;98519.97;;;20.34;94.83
6194;BME280;3130;41.564;23.280;2023-06-14T05:26:29;98534.44;;;20.52;94.07
6194;BME280;3130;41.564;23.280;2023-06-14T05:28:56;98537.38;;;20.57;93.61
6194;BME280;3130;41.564;23.280;2023-06-14T05:31:24;98531.19;;;20.58;93.32
6194;BME280;3130;41.564;23.280;2023-06-14T05:33:51;98455.50;;;20.20;92.79
6194;BME280;3130;41.564;23.280;2023-06-14T05:36:19;98537.06;;;20.84;92.88
6194;BME280;3130;41.564;23.280;2023-06-14T05:38:46;98526.31;;;20.87;92.73
6194;BME280;3130;41.564;23.280;2023-06-14T05:41:14;98535.22;;;21.09;92.45
6194;BME280;3130;41.564;23.280;2023-06-14T05:43:42;98524.00;;;21.08;91.60
6194;BME280;3130;41.564;23.280;2023-06-14T05:46:10;98542.66;;;21.35;90.22
6194;BME280;3130;41.564;23.280;2023-06-14T05:48:37;98515.97;;;21.10;89.35
6194;BME280;3130;41.564;23.280;2023-06-14T05:51:04;98527.41;;;21.09;89.50
6194;BME280;3130;41.564;23.280;2023-06-14T05:53:34;98544.56;;;21.49;88.82
6194;BME280;3130;41.564;23.280;2023-06-14T05:56:01;98498.25;;;21.43;88.64
6194;BME280;3130;41.564;23.280;2023-06-14T05:58:29;98536.41;;;21.91;87.78
6194;BME280;3130;41.564;23.280;2023-06-14T06:00:57;98525.53;;;22.10;86.70
6194;BME280;3130;41.564;23.280;2023-06-14T06:03:24;98546.59;;;22.39;85.33
6194;BME280;3130;41.564;23.280;2023-06-14T06:05:55;98542.63;;;22.65;84.45
6194;BME280;3130;41.564;23.280;2023-06-14T06:08:22;98549.91;;;22.92;82.29
6194;BME280;3130;41.564;23.280;2023-06-14T06:10:49;98556.97;;;23.06;80.50
6194;BME280;3130;41.564;23.280;2023-06-14T06:13:16;98555.09;;;23.14;79.64
6194;BME280;3130;41.564;23.280;2023-06-14T06:15:43;98551.59;;;23.07;79.01
6194;BME280;3130;41.564;23.280;2023-06-14T06:18:12;98544.38;;;23.09;78.46
6194;BME280;3130;41.564;23.280;2023-06-14T06:20:39;98552.88;;;23.26;78.62
6194;BME280;3130;41.564;23.280;2023-06-14T06:23:06;98551.16;;;23.33;78.45
6194;BME280;3130;41.564;23.280;2023-06-14T06:25:33;98466.22;;;22.92;77.54
6194;BME280;3130;41.564;23.280;2023-06-14T06:28:00;98478.66;;;23.04;76.23
6194;BME280;3130;41.564;23.280;2023-06-14T06:30:28;98558.84;;;23.48;75.70
6194;BME280;3130;41.564;23.280;2023-06-14T06:32:55;98484.38;;;23.08;75.89
6194;BME280;3130;41.564;23.280;2023-06-14T06:35:24;98459.19;;;23.07;75.81
6194;BME280;3130;41.564;23.280;2023-06-14T06:37:51;98553.13;;;23.74;75.95
6194;BME280;3130;41.564;23.280;2023-06-14T06:40:18;98497.34;;;23.44;76.25
6194;BME280;3130;41.564;23.280;2023-06-14T06:42:45;98555.38;;;23.91;74.90
6194;BME280;3130;41.564;23.280;2023-06-14T06:45:12;98550.72;;;24.08;75.00
6194;BME280;3130;41.564;23.280;2023-06-14T06:47:40;98495.81;;;23.79;75.00
6194;BME280;3130;41.564;23.280;2023-06-14T06:50:08;98472.31;;;23.71;74.68
6194;BME280;3130;41.564;23.280;2023-06-14T06:52:36;98543.19;;;24.19;74.68
6194;BME280;3130;41.564;23.280;2023-06-14T06:55:04;98550.09;;;24.06;74.36
6194;BME280;3130;41.564;23.280;2023-06-14T06:57:31;98544.63;;;24.22;74.96
6194;BME280;3130;41.564;23.280;2023-06-14T06:59:58;98546.16;;;24.51;74.44
6194;BME280;3130;41.564;23.280;2023-06-14T07:02:26;98504.44;;;24.36;73.40
6194;BME280;3130;41.564;23.280;2023-06-14T07:04:53;98546.06;;;24.87;72.71
6194;BME280;3130;41.564;23.280;2023-06-14T07:07:20;98550.66;;;25.06;71.53
6194;BME280;3130;41.564;23.280;2023-06-14T07:09:49;98544.34;;;25.21;71.12
6194;BME280;3130;41.564;23.280;2023-06-14T07:12:16;98485.78;;;24.93;69.65
6194;BME280;3130;41.564;23.280;2023-06-14T07:14:43;98509.63;;;25.26;68.72
6194;BME280;3130;41.564;23.280;2023-06-14T07:17:11;98502.59;;;25.33;68.00
6194;BME280;3130;41.564;23.280;2023-06-14T07:19:38;98543.97;;;25.64;67.63
6194;BME280;3130;41.564;23.280;2023-06-14T07:22:05;98558.03;;;25.84;66.46
6194;BME280;3130;41.564;23.280;2023-06-14T07:24:32;98557.66;;;25.94;65.26
6194;BME280;3130;41.564;23.280;2023-06-14T07:27:03;98568.03;;;26.08;64.36
6194;BME280;3130;41.564;23.280;2023-06-14T07:29:31;98557.53;;;26.21;65.81
6194;BME280;3130;41.564;23.280;2023-06-14T07:31:58;98554.34;;;26.26;65.89
6194;BME280;3130;41.564;23.280;2023-06-14T07:34:25;98561.03;;;26.35;64.70
6194;BME280;3130;41.564;23.280;2023-06-14T07:36:52;98565.94;;;26.51;63.54
6194;BME280;3130;41.564;23.280;2023-06-14T07:39:19;98569.63;;;26.69;62.59
6194;BME280;3130;41.564;23.280;2023-06-14T07:41:47;98494.47;;;26.41;62.66
6194;BME280;3130;41.564;23.280;2023-06-14T07:44:16;98498.75;;;26.55;62.55
6194;BME280;3130;41.564;23.280;2023-06-14T07:46:43;98573.66;;;27.30;62.75
6194;BME280;3130;41.564;23.280;2023-06-14T07:49:12;98557.88;;;27.23;59.91
6194;BME280;3130;41.564;23.280;2023-06-14T07:51:39;98500.13;;;27.22;59.83
6194;BME280;3130;41.564;23.280;2023-06-14T07:54:06;98574.25;;;28.08;57.28
6194;BME280;3130;41.564;23.280;2023-06-14T07:56:34;98528.25;;;27.97;54.94
6194;BME280;3130;41.564;23.280;2023-06-14T07:59:02;98580.50;;;28.88;53.44
6194;BME280;3130;41.564;23.280;2023-06-14T08:01:31;98482.34;;;29.51;49.39
6194;BME280;3130;41.564;23.280;2023-06-14T08:03:58;98577.16;;;30.01;45.27
6194;BME280;3130;41.564;23.280;2023-06-14T08:06:26;98568.34;;;29.29;48.39
6194;BME280;3130;41.564;23.280;2023-06-14T08:08:56;98575.31;;;28.99;49.95
6194;BME280;3130;41.564;23.280;2023-06-14T08:11:23;98560.03;;;28.83;50.84
6194;BME280;3130;41.564;23.280;2023-06-14T08:13:51;98557.00;;;28.73;51.68
6194;BME280;3130;41.564;23.280;2023-06-14T08:16:18;98573.25;;;28.77;51.12
6194;BME280;3130;41.564;23.280;2023-06-14T08:18:47;98497.59;;;28.40;49.74
6194;BME280;3130;41.564;23.280;2023-06-14T08:21:14;98573.00;;;28.85;50.93
6194;BME280;3130;41.564;23.280;2023-06-14T08:23:41;98570.31;;;28.61;51.09
6194;BME280;3130;41.564;23.280;2023-06-14T08:26:09;98579.53;;;28.52;50.33
6194;BME280;3130;41.564;23.280;2023-06-14T08:28:36;98577.78;;;28.39;49.93
6194;BME280;3130;41.564;23.280;2023-06-14T08:31:03;98573.47;;;28.45;52.02
6194;BME280;3130;41.564;23.280;2023-06-14T08:33:31;98540.91;;;28.26;52.56
6194;BME280;3130;41.564;23.280;2023-06-14T08:36:02;98568.19;;;28.45;51.46
6194;BME280;3130;41.564;23.280;2023-06-14T08:38:29;98572.69;;;28.38;51.87
6194;BME280;3130;41.564;23.280;2023-06-14T08:40:57;98575.59;;;28.30;52.51
6194;BME280;3130;41.564;23.280;2023-06-14T08:43:25;98585.09;;;28.37;51.22
6194;BME280;3130;41.564;23.280;2023-06-14T08:45:54;98577.16;;;28.37;51.89
6194;BME280;3130;41.564;23.280;2023-06-14T08:48:26;98553.88;;;28.28;51.24
6194;BME280;3130;41.564;23.280;2023-06-14T08:50:55;98579.47;;;28.27;51.57
6194;BME280;3130;41.564;23.280;2023-06-14T08:53:30;98532.38;;;28.31;52.14
6194;BME280;3130;41.564;23.280;2023-06-14T08:55:59;98563.69;;;28.82;52.90
6194;BME280;3130;41.564;23.280;2023-06-14T08:58:28;98473.13;;;28.51;50.45
6194;BME280;3130;41.564;23.280;2023-06-14T09:00:59;98523.56;;;28.68;50.26
6194;BME280;3130;41.564;23.280;2023-06-14T09:03:27;98509.81;;;28.35;50.03
6194;BME280;3130;41.564;23.280;2023-06-14T09:05:57;98559.28;;;28.70;51.27
6194;BME280;3130;41.564;23.280;2023-06-14T09:08:26;98555.13;;;28.80;49.68
6194;BME280;3130;41.564;23.280;2023-06-14T09:10:57;98564.13;;;28.73;49.92
6194;BME280;3130;41.564;23.280;2023-06-14T09:13:24;98561.19;;;28.57;49.85
6194;BME280;3130;41.564;23.280;2023-06-14T09:15:53;98538.97;;;28.46;50.65
6194;BME280;3130;41.564;23.280;2023-06-14T09:18:21;98492.56;;;27.95;50.11
6194;BME280;3130;41.564;23.280;2023-06-14T09:20:48;98533.84;;;28.14;51.76
6194;BME280;3130;41.564;23.280;2023-06-14T09:23:20;98528.94;;;28.17;52.97
6194;BME280;3130;41.564;23.280;2023-06-14T09:25:48;98528.31;;;28.22;53.00
6194;BME280;3130;41.564;23.280;2023-06-14T09:28:17;98537.03;;;28.29;52.64
6194;BME280;3130;41.564;23.280;2023-06-14T09:30:45;98517.94;;;28.33;51.84
6194;BME280;3130;41.564;23.280;2023-06-14T09:33:17;98492.09;;;28.42;51.79
6194;BME280;3130;41.564;23.280;2023-06-14T09:35:45;98526.59;;;28.71;49.66
6194;BME280;3130;41.564;23.280;2023-06-14T09:38:12;98521.72;;;28.68;50.35
6194;BME280;3130;41.564;23.280;2023-06-14T09:40:39;98529.38;;;28.76;49.26
6194;BME280;3130;41.564;23.280;2023-06-14T09:43:07;98533.34;;;28.61;48.65
6194;BME280;3130;41.564;23.280;2023-06-14T09:45:37;98443.81;;;28.04;48.25
6194;BME280;3130;41.564;23.280;2023-06-14T09:48:05;98467.84;;;28.27;47.79
6194;BME280;3130;41.564;23.280;2023-06-14T09:50:33;98420.56;;;27.94;48.57
6194;BME280;3130;41.564;23.280;2023-06-14T09:53:03;98525.25;;;28.56;47.40
6194;BME280;3130;41.564;23.280;2023-06-14T09:55:34;98494.59;;;28.37;47.16
6194;BME280;3130;41.564;23.280;2023-06-14T09:58:05;98418.31;;;27.98;48.05
6194;BME280;3130;41.564;23.280;2023-06-14T10:00:33;98434.47;;;28.08;47.39
6194;BME280;3130;41.564;23.280;2023-06-14T10:03:06;98494.53;;;28.43;46.15
6194;BME280;3130;41.564;23.280;2023-06-14T10:05:41;98416.09;;;27.95;46.89
6194;BME280;3130;41.564;23.280;2023-06-14T10:08:10;98407.22;;;27.89;47.72
6194;BME280;3130;41.564;23.280;2023-06-14T10:10:42;98430.03;;;28.08;48.37
6194;BME280;3130;41.564;23.280;2023-06-14T10:13:10;98483.16;;;28.43;46.49
6194;BME280;3130;41.564;23.280;2023-06-14T10:15:42;98519.84;;;28.75;43.72
6194;BME280;3130;41.564;23.280;2023-06-14T10:18:25;98456.88;;;28.30;45.72
6194;BME280;3130;41.564;23.280;2023-06-14T10:21:03;98520.22;;;28.54;47.92
6194;BME280;3130;41.564;23.280;2023-06-14T10:23:37;98518.97;;;28.57;48.12
6194;BME280;3130;41.564;23.280;2023-06-14T10:26:04;98477.31;;;28.34;47.74
6194;BME280;3130;41.564;23.280;2023-06-14T10:28:32;98525.88;;;28.58;47.99
6194;BME280;3130;41.564;23.280;2023-06-14T10:31:07;98497.41;;;28.35;48.49
6194;BME280;3130;41.564;23.280;2023-06-14T10:33:40;98391.09;;;27.73;49.36
6194;BME280;3130;41.564;23.280;2023-06-14T10:36:33;98393.50;;;27.37;52.24
6194;BME280;3130;41.564;23.280;2023-06-14T10:39:04;98455.06;;;27.49;51.73
6194;BME280;3130;41.564;23.280;2023-06-14T10:41:35;98428.81;;;27.23;52.83
6194;BME280;3130;41.564;23.280;2023-06-14T10:44:50;98452.47;;;27.36;52.52
6194;BME280;3130;41.564;23.280;2023-06-14T10:47:25;98510.13;;;27.63;52.35
6194;BME280;3130;41.564;23.280;2023-06-14T10:49:54;98511.13;;;27.63;51.76
6194;BME280;3130;41.564;23.280;2023-06-14T10:52:27;98512.19;;;27.55;52.07
6194;BME280;3130;41.564;23.280;2023-06-14T10:55:08;98469.97;;;27.18;51.75
6194;BME280;3130;41.564;23.280;2023-06-14T10:57:38;98435.59;;;26.67;51.06
6194;BME280;3130;41.564;23.280;2023-06-14T11:00:07;98414.53;;;26.29;52.29
6194;BME280;3130;41.564;23.280;2023-06-14T11:03:17;98536.38;;;26.49;54.02
6194;BME280;3130;41.564;23.280;2023-06-14T11:05:52;98525.97;;;26.08;55.86
6194;BME280;3130;41.564;23.280;2023-06-14T11:11:51;98549.59;;;25.55;68.42
6194;BME280;3130;41.564;23.280;2023-06-14T11:14:20;98516.56;;;25.12;67.21
6194;BME280;3130;41.564;23.280;2023-06-14T11:16:48;98540.09;;;24.72;75.46
6194;BME280;3130;41.564;23.280;2023-06-14T11:19:15;98527.94;;;23.73;75.27
6194;BME280;3130;41.564;23.280;2023-06-14T11:21:47;98548.88;;;23.58;78.24
6194;BME280;3130;41.564;23.280;2023-06-14T11:24:14;98536.38;;;23.03;81.45
6194;BME280;3130;41.564;23.280;2023-06-14T11:26:41;98549.63;;;22.87;86.43
6194;BME280;3130;41.564;23.280;2023-06-14T11:29:08;98537.63;;;22.78;89.58
6194;BME280;3130;41.564;23.280;2023-06-14T11:31:35;98527.06;;;22.71;92.21
6194;BME280;3130;41.564;23.280;2023-06-14T11:34:03;98477.41;;;22.27;90.32
6194;BME280;3130;41.564;23.280;2023-06-14T11:36:34;98451.25;;;22.35;94.97
6194;BME280;3130;41.564;23.280;2023-06-14T11:39:03;98481.44;;;22.74;97.44
6194;BME280;3130;41.564;23.280;2023-06-14T11:41:37;98518.31;;;23.16;99.82
6194;BME280;3130;41.564;23.280;2023-06-14T11:44:05;98457.09;;;22.88;98.80
6194;BME280;3130;41.564;23.280;2023-06-14T11:46:32;98482.19;;;22.97;97.17
6194;BME280;3130;41.564;23.280;2023-06-14T11:49:01;98383.03;;;22.58;99.38
6194;BME280;3130;41.564;23.280;2023-06-14T11:51:30;98481.56;;;23.24;95.91
6194;BME280;3130;41.564;23.280;2023-06-14T11:53:57;98490.00;;;23.54;98.79
6194;BME280;3130;41.564;23.280;2023-06-14T11:56:26;98411.38;;;22.84;96.58
6194;BME280;3130;41.564;23.280;2023-06-14T11:58:53;98404.53;;;23.26;97.87
6194;BME280;3130;41.564;23.280;2023-06-14T12:01:23;98383.47;;;23.34;96.03
6194;BME280;3130;41.564;23.280;2023-06-14T12:03:53;98397.91;;;23.65;90.24
6194;BME280;3130;41.564;23.280;2023-06-14T12:06:26;98481.78;;;24.28;81.39
6194;BME280;3130;41.564;23.280;2023-06-14T12:08:58;98481.72;;;24.43;82.03
6194;BME280;3130;41.564;23.280;2023-06-14T12:11:32;98478.66;;;24.60;79.74
6194;BME280;3130;41.564;23.280;2023-06-14T12:14:00;98362.53;;;24.18;82.06
6194;BME280;3130;41.564;23.280;2023-06-14T12:16:31;98473.28;;;25.29;82.32
6194;BME280;3130;41.564;23.280;2023-06-14T12:19:09;98365.78;;;24.74;79.00
6194;BME280;3130;41.564;23.280;2023-06-14T12:21:37;98355.94;;;24.49;73.45
6194;BME280;3130;41.564;23.280;2023-06-14T12:24:06;98485.63;;;25.29;73.59
6194;BME280;3130;41.564;23.280;2023-06-14T12:26:38;98428.53;;;25.10;76.68
6194;BME280;3130;41.564;23.280;2023-06-14T12:29:06;98487.09;;;25.44;73.31
6194;BME280;3130;41.564;23.280;2023-06-14T12:31:33;98465.66;;;25.41;71.13
6194;BME280;3130;41.564;23.280;2023-06-14T12:34:01;98481.31;;;25.61;69.63
6194;BME280;3130;41.564;23.280;2023-06-14T12:36:28;98481.13;;;25.69;67.64
6194;BME280;3130;41.564;23.280;2023-06-14T12:38:55;98480.22;;;25.90;66.66
6194;BME280;3130;41.564;23.280;2023-06-14T12:41:22;98369.91;;;25.37;64.29
6194;BME280;3130;41.564;23.280;2023-06-14T12:43:51;98465.09;;;26.11;66.36
6194;BME280;3130;41.564;23.280;2023-06-14T12:46:18;98469.56;;;26.37;64.35
6194;BME280;3130;41.564;23.280;2023-06-14T12:48:46;98414.94;;;26.06;55.95
6194;BME280;3130;41.564;23.280;2023-06-14T12:51:13;98474.84;;;26.62;56.32
6194;BME280;3130;41.564;23.280;2023-06-14T12:53:40;98467.38;;;26.72;58.82
6194;BME280;3130;41.564;23.280;2023-06-14T12:56:07;98393.91;;;26.58;60.20
6194;BME280;3130;41.564;23.280;2023-06-14T12:58:34;98429.88;;;27.09;59.58
6194;BME280;3130;41.564;23.280;2023-06-14T13:01:03;98371.59;;;26.86;56.35
6194;BME280;3130;41.564;23.280;2023-06-14T13:03:30;98463.69;;;27.63;53.93
6194;BME280;3130;41.564;23.280;2023-06-14T13:05:59;98433.13;;;27.55;53.38
6194;BME280;3130;41.564;23.280;2023-06-14T13:08:27;98413.38;;;27.40;56.45
6194;BME280;3130;41.564;23.280;2023-06-14T13:10:54;98427.53;;;27.45;55.93
6194;BME280;3130;41.564;23.280;2023-06-14T13:13:21;98449.34;;;27.52;52.24
6194;BME280;3130;41.564;23.280;2023-06-14T13:15:48;98452.81;;;27.53;53.48
6194;BME280;3130;41.564;23.280;2023-06-14T13:18:17;98454.66;;;27.46;51.29
6194;BME280;3130;41.564;23.280;2023-06-14T13:20:45;98447.22;;;27.30;56.26